Time;durP1;ratioP1;P1;durP2;ratioP2;P2;SDS_P1;SDS_P2;PMS_P1;PMS_P2;Temp;Humidity;BMP_temperature;BMP_pressure;BME280_temperature;BME280_humidity;BME280_pressure;Samples;Min_cycle;Max_cycle;Signal;HPM_P1;HPM_P2
2022/09/10 00:00:33;;;;;;;17.17;11.13;;;;;;;;;;5021874;28;20190;-65
2022/09/10 00:03:01;;;;;;;13.80;10.60;;;;;;;;;;5018079;28;20217;-65
2022/09/10 00:05:26;;;;;;;16.17;10.88;;;;;;;;;;5022513;28;20283;-65
2022/09/10 00:07:52;;;;;;;11.02;9.88;;;;;;;;;;5014224;28;20612;-65
2022/09/10 00:10:17;;;;;;;13.43;9.48;;;;;;;;;;5023302;28;20285;-65
2022/09/10 00:12:43;;;;;;;11.75;8.38;;;;;;;;;;5018592;28;20275;-65
2022/09/10 00:15:09;;;;;;;12.57;8.88;;;;;;;;;;5022710;28;20234;-65
2022/09/10 00:17:35;;;;;;;9.85;8.00;;;;;;;;;;5015280;28;20450;-65
2022/09/10 00:20:01;;;;;;;13.93;10.27;;;;;;;;;;5021805;28;20273;-65
2022/09/10 00:22:26;;;;;;;14.27;9.13;;;;;;;;;;5021026;28;20662;-65
2022/09/10 00:24:58;;;;;;;14.95;9.95;;;;;;;;;;5019326;28;20763;-65
2022/09/10 00:27:24;;;;;;;17.20;10.30;;;;;;;;;;5012277;28;20666;-65
2022/09/10 00:29:54;;;;;;;16.88;9.95;;;;;;;;;;5027168;28;20202;-65
2022/09/10 00:32:20;;;;;;;11.85;8.93;;;;;;;;;;5022561;28;20197;-65
2022/09/10 00:34:46;;;;;;;15.65;10.27;;;;;;;;;;5026668;28;20655;-65
2022/09/10 00:37:13;;;;;;;19.63;10.93;;;;;;;;;;5017819;28;20182;-65
2022/09/10 00:39:38;;;;;;;15.00;10.43;;;;;;;;;;5022459;28;20264;-65
2022/09/10 00:42:03;;;;;;;17.77;10.55;;;;;;;;;;5020139;28;20193;-65
2022/09/10 00:44:38;;;;;;;14.40;10.70;;;;;;;;;;5025111;28;20636;-65
2022/09/10 00:47:06;;;;;;;12.50;9.77;;;;;;;;;;5019199;28;20680;-65
2022/09/10 00:49:40;;;;;;;18.27;12.40;;;;;;;;;;5016665;28;20190;-65
2022/09/10 00:52:06;;;;;;;20.70;12.07;;;;;;;;;;5025396;28;20174;-65
2022/09/10 00:54:34;;;;;;;16.08;10.25;;;;;;;;;;5025534;28;20214;-65
2022/09/10 00:57:05;;;;;;;14.55;11.32;;;;;;;;;;5022513;28;20183;-65
2022/09/10 00:59:30;;;;;;;17.27;10.75;;;;;;;;;;5022237;28;20182;-65
2022/09/10 01:01:58;;;;;;;18.35;11.50;;;;;;;;;;5020350;28;20239;-65
2022/09/10 01:04:25;;;;;;;16.45;10.40;;;;;;;;;;5022376;28;20186;-65
2022/09/10 01:06:51;;;;;;;13.02;9.80;;;;;;;;;;5022235;28;20257;-65
2022/09/10 01:09:18;;;;;;;18.60;11.05;;;;;;;;;;5016826;28;20657;-65
2022/09/10 01:12:26;;;;;;;15.77;8.77;;;;;;;;;;5027514;28;20190;-65
2022/09/10 01:15:23;;;;;;;15.27;10.23;;;;;;;;;;5024062;28;20177;-65
2022/09/10 01:18:06;;;;;;;18.02;10.80;;;;;;;;;;5022185;28;21434;-64
2022/09/10 01:21:09;;;;;;;19.90;11.70;;;;;;;;;;5029120;28;20189;-65
2022/09/10 01:24:11;;;;;;;17.42;10.52;;;;;;;;;;5027156;28;20274;-65
2022/09/10 01:27:01;;;;;;;15.65;10.00;;;;;;;;;;5024355;28;20747;-65
2022/09/10 01:29:43;;;;;;;15.73;10.73;;;;;;;;;;5020250;28;20193;-65
2022/09/10 01:32:13;;;;;;;18.88;10.00;;;;;;;;;;5026808;28;20215;-65
2022/09/10 01:34:46;;;;;;;16.95;10.48;;;;;;;;;;5029135;28;20224;-65
2022/09/10 01:37:27;;;;;;;18.52;10.73;;;;;;;;;;5019073;28;20232;-65
2022/09/10 01:39:55;;;;;;;16.40;9.95;;;;;;;;;;5034946;28;20679;-65
2022/09/10 01:42:25;;;;;;;29.48;11.40;;;;;;;;;;5028327;28;20171;-65
2022/09/10 01:44:51;;;;;;;20.00;10.13;;;;;;;;;;5028103;28;20189;-66
2022/09/10 01:47:29;;;;;;;18.02;9.90;;;;;;;;;;5025029;28;20736;-66
2022/09/10 01:50:13;;;;;;;14.43;9.80;;;;;;;;;;5030195;28;20177;-65
2022/09/10 01:52:58;;;;;;;20.70;9.90;;;;;;;;;;5024085;28;20665;-65
2022/09/10 01:55:30;;;;;;;22.90;9.98;;;;;;;;;;5011815;28;20332;-66
2022/09/10 01:58:10;;;;;;;13.68;8.43;;;;;;;;;;5026099;28;20181;-65
2022/09/10 02:00:38;;;;;;;17.58;9.85;;;;;;;;;;5027955;28;20520;-65
2022/09/10 02:03:14;;;;;;;18.27;9.93;;;;;;;;;;5020485;28;20190;-65
2022/09/10 02:05:42;;;;;;;14.57;9.13;;;;;;;;;;5020724;28;20240;-65
2022/09/10 02:08:29;;;;;;;18.42;10.02;;;;;;;;;;5025963;28;20697;-65
2022/09/10 02:10:55;;;;;;;14.30;9.68;;;;;;;;;;5025786;28;20177;-65
2022/09/10 02:13:22;;;;;;;18.88;10.35;;;;;;;;;;5026086;28;20699;-66
2022/09/10 02:15:50;;;;;;;14.88;9.27;;;;;;;;;;5023788;28;20269;-65
2022/09/10 02:18:15;;;;;;;14.57;8.98;;;;;;;;;;5027282;28;20170;-65
2022/09/10 02:20:41;;;;;;;18.65;11.23;;;;;;;;;;5028055;28;20194;-65
2022/09/10 02:23:08;;;;;;;14.88;10.18;;;;;;;;;;5027523;28;20575;-65
2022/09/10 02:25:36;;;;;;;18.50;11.13;;;;;;;;;;5019041;28;20187;-65
2022/09/10 02:28:03;;;;;;;17.55;10.90;;;;;;;;;;5021969;28;20631;-67
2022/09/10 02:30:28;;;;;;;22.98;11.15;;;;;;;;;;5020031;28;20225;-65
2022/09/10 02:32:53;;;;;;;18.50;10.95;;;;;;;;;;5015803;28;20226;-65
2022/09/10 02:35:19;;;;;;;22.88;12.13;;;;;;;;;;5030124;28;20178;-65
2022/09/10 02:37:44;;;;;;;14.88;11.40;;;;;;;;;;5027171;28;20182;-66
2022/09/10 02:40:10;;;;;;;21.02;12.27;;;;;;;;;;5021331;28;20178;-65
2022/09/10 02:42:37;;;;;;;28.52;13.98;;;;;;;;;;5027044;28;20240;-65
2022/09/10 02:45:03;;;;;;;19.55;13.38;;;;;;;;;;5027139;28;20186;-64
2022/09/10 02:47:29;;;;;;;22.35;12.82;;;;;;;;;;5020847;28;20209;-65
2022/09/10 02:49:54;;;;;;;20.95;13.63;;;;;;;;;;5020178;28;20174;-66
2022/09/10 02:52:20;;;;;;;23.80;13.68;;;;;;;;;;5024166;28;20187;-67
2022/09/10 02:54:46;;;;;;;20.85;13.98;;;;;;;;;;5023614;28;20305;-67
2022/09/10 02:57:11;;;;;;;21.73;13.63;;;;;;;;;;5022505;28;20639;-67
2022/09/10 02:59:36;;;;;;;25.88;15.00;;;;;;;;;;5023679;28;20544;-67
2022/09/10 03:02:02;;;;;;;23.25;13.88;;;;;;;;;;5017865;28;20190;-67
2022/09/10 03:04:27;;;;;;;21.15;14.93;;;;;;;;;;5022644;28;20237;-67
2022/09/10 03:06:53;;;;;;;24.77;15.60;;;;;;;;;;5027191;28;20209;-67
2022/09/10 03:09:19;;;;;;;23.98;15.95;;;;;;;;;;5024998;28;20186;-67
2022/09/10 03:11:45;;;;;;;30.58;15.85;;;;;;;;;;5020271;28;20190;-67
2022/09/10 03:14:13;;;;;;;23.88;16.45;;;;;;;;;;5019619;28;20179;-66
2022/09/10 03:16:39;;;;;;;28.33;17.13;;;;;;;;;;5025620;28;20280;-67
2022/09/10 03:19:04;;;;;;;23.85;14.95;;;;;;;;;;5024813;28;20270;-65
2022/09/10 03:21:29;;;;;;;25.88;15.93;;;;;;;;;;5027754;28;20203;-66
2022/09/10 03:23:55;;;;;;;23.88;15.88;;;;;;;;;;5025350;28;20213;-66
2022/09/10 03:26:23;;;;;;;24.42;15.77;;;;;;;;;;5026165;28;20233;-66
2022/09/10 03:28:48;;;;;;;23.40;13.63;;;;;;;;;;5017799;28;20206;-67
2022/09/10 03:31:14;;;;;;;21.63;15.73;;;;;;;;;;5027786;28;20204;-66
2022/09/10 03:33:40;;;;;;;23.10;15.60;;;;;;;;;;5020950;28;20174;-67
2022/09/10 03:36:12;;;;;;;24.83;16.38;;;;;;;;;;5022997;28;20618;-67
2022/09/10 03:38:37;;;;;;;27.67;16.63;;;;;;;;;;5024556;28;20646;-67
2022/09/10 03:41:03;;;;;;;28.73;17.42;;;;;;;;;;5022966;28;20209;-67
2022/09/10 03:43:28;;;;;;;22.50;17.02;;;;;;;;;;5024509;28;20287;-66
2022/09/10 03:45:54;;;;;;;29.83;16.70;;;;;;;;;;5021013;28;20204;-67
2022/09/10 03:48:20;;;;;;;37.40;16.98;;;;;;;;;;5014037;28;20206;-66
2022/09/10 03:50:46;;;;;;;23.70;15.93;;;;;;;;;;5020238;28;20540;-67
2022/09/10 03:53:15;;;;;;;25.35;15.27;;;;;;;;;;5014740;28;20182;-67
2022/09/10 03:55:43;;;;;;;31.75;17.83;;;;;;;;;;5024145;28;20925;-66
2022/09/10 03:58:08;;;;;;;26.50;16.77;;;;;;;;;;5024871;28;20209;-67
2022/09/10 04:00:34;;;;;;;28.88;16.95;;;;;;;;;;5020895;28;20619;-66
2022/09/10 04:03:00;;;;;;;32.72;17.55;;;;;;;;;;5024699;28;20573;-67
2022/09/10 04:05:26;;;;;;;23.10;16.48;;;;;;;;;;5026849;28;20335;-67
2022/09/10 04:07:53;;;;;;;30.52;17.88;;;;;;;;;;5023230;28;20202;-66
2022/09/10 04:10:20;;;;;;;27.25;16.67;;;;;;;;;;5026230;28;20185;-66
2022/09/10 04:12:48;;;;;;;25.63;18.10;;;;;;;;;;5025132;28;20178;-65
2022/09/10 04:15:14;;;;;;;27.10;17.20;;;;;;;;;;5025266;28;20578;-66
2022/09/10 04:17:40;;;;;;;26.48;16.60;;;;;;;;;;5027583;28;20174;-66
2022/09/10 04:20:05;;;;;;;26.25;18.00;;;;;;;;;;5024296;28;20190;-67
2022/09/10 04:22:31;;;;;;;25.08;16.70;;;;;;;;;;5021732;28;20262;-65
2022/09/10 04:24:56;;;;;;;26.02;17.58;;;;;;;;;;5020786;28;20638;-67
2022/09/10 04:27:21;;;;;;;26.77;17.02;;;;;;;;;;5024458;28;20521;-67
2022/09/10 04:29:47;;;;;;;24.00;17.35;;;;;;;;;;5022815;28;20174;-66
2022/09/10 04:32:12;;;;;;;28.50;17.60;;;;;;;;;;5022646;28;20478;-67
2022/09/10 04:34:38;;;;;;;24.55;16.35;;;;;;;;;;5026271;28;20638;-67
2022/09/10 04:37:03;;;;;;;31.75;17.88;;;;;;;;;;5024179;28;20186;-66
2022/09/10 04:39:29;;;;;;;28.95;17.27;;;;;;;;;;5020317;28;20261;-67
2022/09/10 04:41:54;;;;;;;28.02;17.80;;;;;;;;;;5019125;28;20225;-67
2022/09/10 04:44:19;;;;;;;29.63;16.80;;;;;;;;;;5027301;28;20213;-67
2022/09/10 04:46:46;;;;;;;27.90;18.08;;;;;;;;;;5025719;28;20274;-65
2022/09/10 04:49:12;;;;;;;29.65;15.30;;;;;;;;;;5018835;28;20182;-65
2022/09/10 04:51:37;;;;;;;33.13;17.58;;;;;;;;;;5026011;28;20192;-65
2022/09/10 04:54:03;;;;;;;17.83;14.02;;;;;;;;;;5019195;28;20515;-66
2022/09/10 04:56:28;;;;;;;24.65;17.25;;;;;;;;;;5022775;28;20181;-65
2022/09/10 04:58:54;;;;;;;27.15;17.15;;;;;;;;;;5023604;28;20185;-65
2022/09/10 05:01:19;;;;;;;27.67;17.65;;;;;;;;;;5022178;28;20187;-66
2022/09/10 05:03:45;;;;;;;27.75;16.90;;;;;;;;;;5024636;28;20178;-66
2022/09/10 05:06:10;;;;;;;30.98;17.88;;;;;;;;;;5024675;28;20283;-65
2022/09/10 05:08:35;;;;;;;32.70;16.90;;;;;;;;;;5023655;28;20232;-65
2022/09/10 05:11:01;;;;;;;26.70;17.75;;;;;;;;;;5025693;28;20196;-65
2022/09/10 05:13:29;;;;;;;29.92;17.80;;;;;;;;;;5022279;28;20221;-64
2022/09/10 05:15:56;;;;;;;30.70;18.65;;;;;;;;;;5021214;28;20188;-67
2022/09/10 05:18:22;;;;;;;25.45;17.20;;;;;;;;;;5025400;28;20665;-65
2022/09/10 05:20:47;;;;;;;35.30;17.80;;;;;;;;;;5030569;28;20198;-66
2022/09/10 05:23:13;;;;;;;28.77;18.23;;;;;;;;;;5020257;28;20201;-65
2022/09/10 05:25:38;;;;;;;31.88;17.88;;;;;;;;;;5026358;28;20220;-65
2022/09/10 05:28:04;;;;;;;30.05;16.95;;;;;;;;;;5019905;28;20237;-66
2022/09/10 05:30:31;;;;;;;24.95;17.85;;;;;;;;;;5025868;28;20190;-65
2022/09/10 05:33:00;;;;;;;30.25;18.60;;;;;;;;;;5023312;28;20280;-65
2022/09/10 05:35:25;;;;;;;30.38;16.90;;;;;;;;;;5023917;28;20200;-65
2022/09/10 05:37:51;;;;;;;29.42;18.27;;;;;;;;;;5026269;28;20539;-66
2022/09/10 05:40:16;;;;;;;24.73;16.80;;;;;;;;;;5023646;28;20496;-65
2022/09/10 05:42:41;;;;;;;28.77;17.05;;;;;;;;;;5021979;28;20190;-67
2022/09/10 05:45:08;;;;;;;27.90;17.27;;;;;;;;;;5021803;28;20273;-66
2022/09/10 05:47:35;;;;;;;27.15;17.30;;;;;;;;;;5022108;28;20260;-68
2022/09/10 05:50:00;;;;;;;30.85;16.80;;;;;;;;;;5019529;28;20210;-66
2022/09/10 05:52:26;;;;;;;24.05;16.95;;;;;;;;;;5026166;28;20221;-66
2022/09/10 05:54:51;;;;;;;30.52;17.17;;;;;;;;;;5023801;28;20221;-66
2022/09/10 05:57:16;;;;;;;24.73;15.68;;;;;;;;;;5025711;28;20170;-66
2022/09/10 05:59:42;;;;;;;27.63;16.50;;;;;;;;;;5029704;28;20182;-65
2022/09/10 06:02:15;;;;;;;28.08;15.68;;;;;;;;;;5029724;28;20556;-66
2022/09/10 06:04:40;;;;;;;25.95;16.50;;;;;;;;;;5022147;28;20222;-66
2022/09/10 06:07:07;;;;;;;30.55;15.98;;;;;;;;;;5031219;28;20206;-66
2022/09/10 06:09:32;;;;;;;19.73;15.25;;;;;;;;;;5022683;28;20221;-65
2022/09/10 06:11:58;;;;;;;24.02;16.48;;;;;;;;;;5025284;28;20214;-66
2022/09/10 06:14:23;;;;;;;23.35;15.88;;;;;;;;;;5025260;28;20194;-66
2022/09/10 06:16:52;;;;;;;22.48;15.23;;;;;;;;;;5026439;28;20194;-66
2022/09/10 06:19:18;;;;;;;25.15;16.65;;;;;;;;;;5027607;28;20530;-66
2022/09/10 06:21:45;;;;;;;25.33;14.52;;;;;;;;;;5024677;28;20213;-66
2022/09/10 06:24:11;;;;;;;22.30;15.75;;;;;;;;;;5025135;28;20187;-66
2022/09/10 06:26:36;;;;;;;25.58;15.30;;;;;;;;;;5025602;28;20201;-66
2022/09/10 06:29:02;;;;;;;25.63;14.88;;;;;;;;;;5024539;28;20206;-66
2022/09/10 06:31:28;;;;;;;20.98;15.38;;;;;;;;;;5028335;28;20657;-66
2022/09/10 06:33:53;;;;;;;27.52;15.63;;;;;;;;;;5024346;28;20549;-66
2022/09/10 06:36:19;;;;;;;19.73;12.18;;;;;;;;;;5033648;28;20864;-66
2022/09/10 06:38:44;;;;;;;21.83;14.45;;;;;;;;;;5021962;28;20185;-66
2022/09/10 06:41:13;;;;;;;23.08;14.63;;;;;;;;;;5027354;28;20182;-66
2022/09/10 06:43:40;;;;;;;25.20;15.13;;;;;;;;;;5019051;28;20404;-66
2022/09/10 06:46:16;;;;;;;20.75;13.05;;;;;;;;;;5023702;28;20182;-66
2022/09/10 06:48:41;;;;;;;22.40;14.65;;;;;;;;;;5027389;28;20193;-66
2022/09/10 06:51:09;;;;;;;19.20;13.52;;;;;;;;;;5024289;28;20190;-66
2022/09/10 06:53:35;;;;;;;19.38;14.18;;;;;;;;;;5023360;28;20186;-66
2022/09/10 06:56:04;;;;;;;18.50;13.73;;;;;;;;;;5023750;28;20182;-66
2022/09/10 06:58:31;;;;;;;20.52;13.43;;;;;;;;;;5026252;28;20179;-66
2022/09/10 07:00:56;;;;;;;25.30;14.75;;;;;;;;;;5025834;28;20233;-66
2022/09/10 07:03:22;;;;;;;17.55;13.35;;;;;;;;;;5020038;28;20260;-66
2022/09/10 07:05:47;;;;;;;20.55;14.27;;;;;;;;;;5021855;28;20335;-66
2022/09/10 07:08:16;;;;;;;20.75;13.05;;;;;;;;;;5017105;28;20237;-66
2022/09/10 07:10:44;;;;;;;18.55;12.80;;;;;;;;;;5025759;28;20190;-66
2022/09/10 07:13:11;;;;;;;22.35;14.50;;;;;;;;;;5021773;28;20194;-66
2022/09/10 07:15:44;;;;;;;15.43;12.55;;;;;;;;;;5023117;28;20193;-66
2022/09/10 07:18:13;;;;;;;19.88;13.00;;;;;;;;;;5027392;28;20190;-66
2022/09/10 07:20:39;;;;;;;19.73;12.98;;;;;;;;;;5027063;28;20563;-66
2022/09/10 07:23:04;;;;;;;15.43;11.50;;;;;;;;;;5027505;28;20261;-66
2022/09/10 07:25:32;;;;;;;16.05;11.98;;;;;;;;;;5019773;28;20182;-66
2022/09/10 07:28:00;;;;;;;17.92;12.30;;;;;;;;;;5023002;28;20867;-66
2022/09/10 07:30:27;;;;;;;19.27;12.95;;;;;;;;;;5021988;28;20417;-66
2022/09/10 07:32:52;;;;;;;16.00;12.95;;;;;;;;;;5023887;28;20694;-66
2022/09/10 07:35:18;;;;;;;18.95;12.55;;;;;;;;;;5023636;28;20232;-66
2022/09/10 07:37:44;;;;;;;16.33;12.68;;;;;;;;;;5027608;28;20190;-66
2022/09/10 07:40:10;;;;;;;18.42;12.98;;;;;;;;;;5024862;28;20637;-66
2022/09/10 07:42:36;;;;;;;15.10;12.25;;;;;;;;;;5020702;28;20268;-66
2022/09/10 07:45:03;;;;;;;18.50;12.93;;;;;;;;;;5017547;28;20630;-66
2022/09/10 07:47:28;;;;;;;16.25;11.68;;;;;;;;;;5024887;28;20673;-65
2022/09/10 07:49:54;;;;;;;15.13;12.38;;;;;;;;;;5021160;28;20288;-66
2022/09/10 07:52:19;;;;;;;15.65;11.18;;;;;;;;;;5010365;28;20221;-66
2022/09/10 07:54:44;;;;;;;12.95;11.23;;;;;;;;;;5021180;28;20210;-66
2022/09/10 07:57:09;;;;;;;15.65;11.48;;;;;;;;;;5025674;28;20201;-66
2022/09/10 07:59:35;;;;;;;19.23;12.05;;;;;;;;;;5023933;28;20236;-66
2022/09/10 08:02:01;;;;;;;14.10;10.23;;;;;;;;;;5026758;28;21417;-66
2022/09/10 08:04:30;;;;;;;13.50;9.57;;;;;;;;;;5022066;28;20230;-66
2022/09/10 08:06:55;;;;;;;15.00;10.77;;;;;;;;;;5021239;28;20182;-66
2022/09/10 08:09:21;;;;;;;12.98;10.27;;;;;;;;;;5023527;28;20543;-66
2022/09/10 08:11:46;;;;;;;11.68;9.73;;;;;;;;;;5023863;28;20540;-65
2022/09/10 08:14:15;;;;;;;14.00;9.35;;;;;;;;;;5027642;28;20583;-66
2022/09/10 08:16:40;;;;;;;10.88;8.77;;;;;;;;;;5023744;28;20261;-66
2022/09/10 08:19:07;;;;;;;10.20;6.82;;;;;;;;;;5027343;28;20269;-66
2022/09/10 08:21:32;;;;;;;9.05;7.40;;;;;;;;;;5021718;28;20236;-66
2022/09/10 08:23:57;;;;;;;11.77;8.27;;;;;;;;;;5016687;28;20190;-66
2022/09/10 08:26:24;;;;;;;8.45;6.65;;;;;;;;;;5021689;28;20225;-66
2022/09/10 08:28:51;;;;;;;11.55;7.40;;;;;;;;;;5021917;28;20190;-66
2022/09/10 08:31:16;;;;;;;9.95;6.68;;;;;;;;;;5024529;28;20701;-66
2022/09/10 08:33:50;;;;;;;8.63;6.10;;;;;;;;;;5027874;28;20193;-66
2022/09/10 08:36:17;;;;;;;7.10;5.00;;;;;;;;;;5026654;28;20189;-66
2022/09/10 08:38:43;;;;;;;5.63;4.38;;;;;;;;;;5028823;28;20760;-65
2022/09/10 08:41:16;;;;;;;9.25;4.50;;;;;;;;;;5026805;28;20194;-65
2022/09/10 08:43:50;;;;;;;13.73;6.18;;;;;;;;;;5023086;28;20269;-66
2022/09/10 08:46:24;;;;;;;7.03;4.95;;;;;;;;;;5025788;28;20185;-66
2022/09/10 08:48:59;;;;;;;6.38;4.38;;;;;;;;;;5028504;28;20285;-66
2022/09/10 08:51:36;;;;;;;8.45;4.72;;;;;;;;;;5014504;28;20196;-66
2022/09/10 08:54:08;;;;;;;8.85;4.63;;;;;;;;;;5016373;28;20178;-66
2022/09/10 08:56:34;;;;;;;9.10;4.15;;;;;;;;;;5025625;28;20185;-66
2022/09/10 08:59:10;;;;;;;5.72;3.70;;;;;;;;;;5027673;28;20196;-66
2022/09/10 09:01:40;;;;;;;7.28;4.18;;;;;;;;;;5026998;28;20247;-66
2022/09/10 09:04:16;;;;;;;5.40;4.00;;;;;;;;;;5017935;28;20185;-66
2022/09/10 09:06:52;;;;;;;6.95;4.53;;;;;;;;;;5024946;28;20193;-67
2022/09/10 09:09:18;;;;;;;5.97;4.35;;;;;;;;;;5019612;28;20177;-66
2022/09/10 09:12:01;;;;;;;6.03;4.03;;;;;;;;;;5019042;28;20686;-66
2022/09/10 09:14:38;;;;;;;5.80;3.67;;;;;;;;;;5020310;28;20563;-66
2022/09/10 09:17:27;;;;;;;4.53;3.42;;;;;;;;;;5027099;28;20198;-66
2022/09/10 09:20:14;;;;;;;5.13;3.83;;;;;;;;;;5014295;28;20679;-66
2022/09/10 09:22:49;;;;;;;7.25;3.83;;;;;;;;;;5026082;28;20221;-66
2022/09/10 09:25:45;;;;;;;5.85;3.53;;;;;;;;;;5022931;28;20237;-67
2022/09/10 09:28:19;;;;;;;4.28;3.20;;;;;;;;;;5026522;28;20205;-67
2022/09/10 09:30:48;;;;;;;5.45;3.58;;;;;;;;;;5029394;28;20182;-66
2022/09/10 09:33:17;;;;;;;5.07;3.33;;;;;;;;;;5028237;28;20206;-66
2022/09/10 09:35:49;;;;;;;3.80;2.83;;;;;;;;;;5026682;28;20694;-66
2022/09/10 09:38:22;;;;;;;3.63;3.25;;;;;;;;;;5028021;28;20261;-66
2022/09/10 09:40:55;;;;;;;4.75;3.08;;;;;;;;;;5023329;28;20419;-66
2022/09/10 09:43:30;;;;;;;4.38;2.83;;;;;;;;;;5026896;28;20553;-66
2022/09/10 09:45:56;;;;;;;6.13;3.22;;;;;;;;;;5026004;28;20177;-66
2022/09/10 09:48:23;;;;;;;5.60;2.95;;;;;;;;;;5025764;28;20214;-66
2022/09/10 09:50:52;;;;;;;6.15;2.80;;;;;;;;;;5026906;28;20194;-66
2022/09/10 09:53:26;;;;;;;5.18;2.80;;;;;;;;;;5026334;28;20213;-66
2022/09/10 09:56:00;;;;;;;4.55;2.55;;;;;;;;;;5027611;28;20213;-66
2022/09/10 09:58:29;;;;;;;5.63;3.08;;;;;;;;;;5029617;28;20185;-67
2022/09/10 10:01:09;;;;;;;5.45;2.92;;;;;;;;;;5020200;28;20183;-67
2022/09/10 10:03:51;;;;;;;3.20;2.50;;;;;;;;;;5033778;28;20268;-66
2022/09/10 10:06:21;;;;;;;3.92;2.55;;;;;;;;;;5027415;28;20629;-67
2022/09/10 10:08:56;;;;;;;3.42;2.72;;;;;;;;;;5025092;28;20217;-67
2022/09/10 10:11:35;;;;;;;3.40;2.35;;;;;;;;;;5026346;28;20186;-66
2022/09/10 10:14:11;;;;;;;6.25;2.58;;;;;;;;;;5025927;28;20181;-66
2022/09/10 10:16:37;;;;;;;3.22;1.98;;;;;;;;;;5024481;28;20192;-66
2022/09/10 10:19:22;;;;;;;4.80;1.85;;;;;;;;;;5025250;28;20178;-66
2022/09/10 10:21:47;;;;;;;3.20;2.10;;;;;;;;;;5021904;28;20444;-66
2022/09/10 10:24:32;;;;;;;3.17;2.17;;;;;;;;;;5025951;28;20540;-67
2022/09/10 10:26:59;;;;;;;5.35;2.80;;;;;;;;;;5024524;28;20274;-67
2022/09/10 10:29:25;;;;;;;3.22;2.65;;;;;;;;;;5027840;28;20170;-67
2022/09/10 10:31:52;;;;;;;4.15;2.85;;;;;;;;;;5021982;28;20194;-67
2022/09/10 10:35:09;;;;;;;3.30;2.83;;;;;;;;;;5026740;28;20682;-67
2022/09/10 10:38:04;;;;;;;3.90;3.20;;;;;;;;;;5012791;28;20258;-67
2022/09/10 10:40:34;;;;;;;2.97;2.70;;;;;;;;;;5015366;28;20191;-66
2022/09/10 10:43:13;;;;;;;5.20;3.10;;;;;;;;;;5021398;28;20215;-67
2022/09/10 10:45:54;;;;;;;4.68;2.97;;;;;;;;;;5018561;28;20354;-67
2022/09/10 10:48:38;;;;;;;2.55;2.33;;;;;;;;;;5026475;28;20751;-67
2022/09/10 10:51:26;;;;;;;4.70;2.47;;;;;;;;;;5023054;28;20186;-66
2022/09/10 10:54:31;;;;;;;4.75;2.63;;;;;;;;;;5019622;28;20303;-66
2022/09/10 10:57:14;;;;;;;3.25;2.42;;;;;;;;;;5009869;28;20458;-67
2022/09/10 10:59:52;;;;;;;4.50;2.20;;;;;;;;;;5015986;28;20269;-66
2022/09/10 11:02:23;;;;;;;3.75;2.47;;;;;;;;;;5018014;28;20194;-68
2022/09/10 11:04:51;;;;;;;3.30;2.63;;;;;;;;;;5017850;28;20277;-66
2022/09/10 11:07:24;;;;;;;3.92;2.03;;;;;;;;;;5018706;28;20669;-67
2022/09/10 11:09:59;;;;;;;2.25;1.58;;;;;;;;;;5029696;28;20189;-67
2022/09/10 11:13:02;;;;;;;2.55;1.40;;;;;;;;;;5029687;28;20659;-67
2022/09/10 11:15:40;;;;;;;3.33;1.80;;;;;;;;;;5024212;28;20205;-66
2022/09/10 11:18:29;;;;;;;4.85;1.95;;;;;;;;;;5028976;28;20591;-67
2022/09/10 11:21:11;;;;;;;3.05;2.03;;;;;;;;;;5024774;28;20496;-67
2022/09/10 11:23:44;;;;;;;3.50;2.10;;;;;;;;;;5023002;28;20174;-68
2022/09/10 11:26:13;;;;;;;2.47;1.50;;;;;;;;;;5024884;28;20198;-67
2022/09/10 11:28:54;;;;;;;3.05;2.05;;;;;;;;;;5022400;28;20217;-67
2022/09/10 11:31:33;;;;;;;3.28;1.90;;;;;;;;;;5025300;28;20210;-66
2022/09/10 11:34:04;;;;;;;2.92;2.40;;;;;;;;;;5026596;28;20265;-67
2022/09/10 11:37:05;;;;;;;2.95;2.08;;;;;;;;;;5022288;28;20530;-67
2022/09/10 11:39:33;;;;;;;3.72;1.90;;;;;;;;;;5027168;28;20210;-66
2022/09/10 11:42:08;;;;;;;4.10;1.90;;;;;;;;;;5025638;28;20623;-67
2022/09/10 11:44:46;;;;;;;3.60;1.98;;;;;;;;;;5026213;28;20190;-67
2022/09/10 11:47:20;;;;;;;3.50;2.25;;;;;;;;;;5014309;28;20185;-67
2022/09/10 11:50:10;;;;;;;2.50;2.08;;;;;;;;;;5028714;28;20190;-67
2022/09/10 11:52:35;;;;;;;6.30;2.40;;;;;;;;;;5025742;28;20614;-67
2022/09/10 11:55:03;;;;;;;3.47;3.00;;;;;;;;;;5027009;28;20178;-68
2022/09/10 11:57:47;;;;;;;5.05;2.78;;;;;;;;;;5023742;28;20257;-67
2022/09/10 12:00:15;;;;;;;3.22;2.42;;;;;;;;;;5024502;28;20197;-67
2022/09/10 12:03:27;;;;;;;5.97;3.20;;;;;;;;;;5022488;28;20725;-67
2022/09/10 12:05:55;;;;;;;4.72;3.00;;;;;;;;;;5023592;28;20230;-68
2022/09/10 12:08:31;;;;;;;2.45;2.17;;;;;;;;;;5023534;28;20254;-67
2022/09/10 12:11:24;;;;;;;4.55;2.45;;;;;;;;;;5019674;28;20261;-67
2022/09/10 12:13:50;;;;;;;2.10;1.90;;;;;;;;;;5021360;28;20628;-67
2022/09/10 12:16:29;;;;;;;3.80;2.20;;;;;;;;;;5023043;28;20313;-67
2022/09/10 12:18:57;;;;;;;4.10;2.10;;;;;;;;;;5025944;28;20182;-68
2022/09/10 12:21:47;;;;;;;2.72;1.58;;;;;;;;;;5021160;28;20183;-67
2022/09/10 12:24:31;;;;;;;3.35;1.40;;;;;;;;;;5019703;28;20575;-68
2022/09/10 12:26:59;;;;;;;1.60;1.10;;;;;;;;;;5016959;28;20179;-68
2022/09/10 12:29:32;;;;;;;2.20;1.08;;;;;;;;;;5025428;28;20213;-68
2022/09/10 12:32:06;;;;;;;2.70;1.00;;;;;;;;;;5020553;28;20206;-67
2022/09/10 12:34:31;;;;;;;1.92;1.17;;;;;;;;;;5020570;28;20192;-67
2022/09/10 12:36:57;;;;;;;3.47;1.27;;;;;;;;;;5019436;28;20167;-67
2022/09/10 12:39:27;;;;;;;2.88;1.40;;;;;;;;;;5027580;28;20178;-67
2022/09/10 12:41:52;;;;;;;2.50;1.95;;;;;;;;;;5024848;28;20277;-67
2022/09/10 12:44:33;;;;;;;3.97;2.35;;;;;;;;;;5017007;28;20249;-68
2022/09/10 12:47:13;;;;;;;4.45;3.03;;;;;;;;;;5026050;28;20255;-68
2022/09/10 12:49:57;;;;;;;5.72;3.75;;;;;;;;;;5028668;28;20192;-67
2022/09/10 12:52:41;;;;;;;7.80;4.10;;;;;;;;;;5012779;28;20532;-67
2022/09/10 12:55:37;;;;;;;7.45;4.43;;;;;;;;;;5026338;28;20178;-68
2022/09/10 12:58:47;;;;;;;6.40;3.25;;;;;;;;;;5021914;28;20186;-68
2022/09/10 13:01:40;;;;;;;1.48;1.10;;;;;;;;;;5027479;28;20556;-68
2022/09/10 13:04:18;;;;;;;5.30;1.05;;;;;;;;;;5024096;28;20189;-67
2022/09/10 13:06:46;;;;;;;2.70;1.02;;;;;;;;;;5026101;28;20209;-67
2022/09/10 13:09:18;;;;;;;2.35;1.48;;;;;;;;;;5029678;28;20240;-69
2022/09/10 13:11:51;;;;;;;3.00;1.50;;;;;;;;;;5027395;28;20190;-68
2022/09/10 13:14:25;;;;;;;3.58;1.52;;;;;;;;;;5027317;28;20182;-68
2022/09/10 13:16:50;;;;;;;2.38;1.70;;;;;;;;;;5026022;28;20186;-67
2022/09/10 13:19:17;;;;;;;4.85;2.47;;;;;;;;;;5029830;28;20178;-67
2022/09/10 13:21:42;;;;;;;3.60;2.60;;;;;;;;;;5025543;28;20194;-68
2022/09/10 13:24:33;;;;;;;2.75;2.40;;;;;;;;;;5027441;28;20308;-69
2022/09/10 13:27:09;;;;;;;6.47;2.72;;;;;;;;;;5022647;28;20694;-68
2022/09/10 13:29:44;;;;;;;4.40;2.85;;;;;;;;;;5024924;28;20276;-68
2022/09/10 13:32:16;;;;;;;3.00;2.58;;;;;;;;;;5026565;28;20205;-68
2022/09/10 13:34:50;;;;;;;4.05;2.38;;;;;;;;;;5025249;28;20517;-68
2022/09/10 13:37:39;;;;;;;4.78;2.58;;;;;;;;;;5026050;28;20545;-68
2022/09/10 13:40:26;;;;;;;4.82;2.45;;;;;;;;;;5025035;28;20182;-67
2022/09/10 13:43:38;;;;;;;5.03;3.28;;;;;;;;;;5023748;28;20672;-68
2022/09/10 13:46:11;;;;;;;5.53;3.78;;;;;;;;;;4991243;28;20187;-68
2022/09/10 13:48:48;;;;;;;4.80;3.20;;;;;;;;;;4990204;28;20448;-67
2022/09/10 13:51:29;;;;;;;5.05;3.30;;;;;;;;;;5011544;28;20762;-67
2022/09/10 13:54:06;;;;;;;5.15;2.70;;;;;;;;;;5025406;28;20192;-68
2022/09/10 13:56:32;;;;;;;4.13;3.28;;;;;;;;;;5027186;28;20231;-67
2022/09/10 13:59:00;;;;;;;5.82;3.38;;;;;;;;;;5028548;28;20254;-68
2022/09/10 14:01:52;;;;;;;3.83;3.00;;;;;;;;;;5027500;28;20190;-68
2022/09/10 14:04:38;;;;;;;5.15;3.08;;;;;;;;;;5028365;28;20190;-67
2022/09/10 14:07:15;;;;;;;4.38;3.33;;;;;;;;;;5028436;28;20657;-67
2022/09/10 14:10:01;;;;;;;4.70;3.10;;;;;;;;;;5027281;28;20558;-67
2022/09/10 14:12:31;;;;;;;4.78;2.65;;;;;;;;;;5024217;28;20193;-67
2022/09/10 14:15:00;;;;;;;4.72;3.13;;;;;;;;;;5026245;28;20257;-67
2022/09/10 14:17:44;;;;;;;5.03;3.03;;;;;;;;;;5024975;28;20178;-68
2022/09/10 14:20:27;;;;;;;3.45;2.50;;;;;;;;;;5027816;28;20182;-68
2022/09/10 14:23:01;;;;;;;6.95;2.80;;;;;;;;;;5024667;28;20178;-68
2022/09/10 14:25:31;;;;;;;5.15;3.03;;;;;;;;;;5023038;28;20196;-69
2022/09/10 14:28:14;;;;;;;3.95;3.00;;;;;;;;;;5023322;28;20205;-68
2022/09/10 14:30:40;;;;;;;5.00;2.78;;;;;;;;;;5024864;28;20189;-68
2022/09/10 14:33:34;;;;;;;4.03;2.60;;;;;;;;;;5025715;28;20733;-68
2022/09/10 14:36:20;;;;;;;5.63;2.40;;;;;;;;;;5029676;28;20178;-67
2022/09/10 14:39:01;;;;;;;2.45;2.20;;;;;;;;;;5024829;28;20185;-68
2022/09/10 14:41:28;;;;;;;3.00;2.80;;;;;;;;;;5026011;28;20186;-68
2022/09/10 14:44:22;;;;;;;4.60;2.72;;;;;;;;;;5025347;28;20189;-68
2022/09/10 14:46:52;;;;;;;5.63;4.80;;;;;;;;;;5017333;28;20186;-68
2022/09/10 14:49:25;;;;;;;5.63;4.50;;;;;;;;;;5025951;28;20206;-68
2022/09/10 14:51:51;;;;;;;5.18;4.10;;;;;;;;;;5018361;28;20185;-68
2022/09/10 14:54:16;;;;;;;6.07;4.90;;;;;;;;;;5026294;28;20179;-68